Time;durP1;ratioP1;P1;durP2;ratioP2;P2;SDS_P1;SDS_P2;PMS_P1;PMS_P2;Temp;Humidity;BMP_temperature;BMP_pressure;BME280_temperature;BME280_humidity;BME280_pressure;Samples;Min_cycle;Max_cycle;Signal;HPM_P1;HPM_P2
2021/10/22 00:01:40;;;;;;;1.67;0.60;;;26.10;92.20;;;;;;5085197;28;20028;-76
2021/10/22 00:04:08;;;;;;;1.33;0.20;;;25.70;92.50;;;;;;5086725;28;20024;-74
2021/10/22 00:06:35;;;;;;;3.85;0.32;;;25.60;93.30;;;;;;5067095;28;20422;-75
2021/10/22 00:09:03;;;;;;;0.43;0.20;;;25.20;93.00;;;;;;5081261;28;20367;-75
2021/10/22 00:11:30;;;;;;;3.45;0.88;;;25.00;92.90;;;;;;5061318;28;20052;-74
2021/10/22 00:13:58;;;;;;;0.57;0.30;;;25.10;92.40;;;;;;5083408;28;20028;-73
2021/10/22 00:16:26;;;;;;;0.65;0.30;;;25.40;92.00;;;;;;5079832;28;20024;-73
2021/10/22 00:18:53;;;;;;;0.85;0.30;;;25.50;91.90;;;;;;5080723;28;20509;-72
2021/10/22 00:21:21;;;;;;;1.38;0.30;;;25.90;91.20;;;;;;5080529;28;20055;-74
2021/10/22 00:23:48;;;;;;;1.45;0.63;;;26.80;90.80;;;;;;5080387;28;20038;-72
2021/10/22 00:26:15;;;;;;;0.55;0.28;;;27.60;88.20;;;;;;5078945;28;20538;-72
2021/10/22 00:28:43;;;;;;;1.30;0.20;;;28.00;85.30;;;;;;5080140;28;20059;-75
2021/10/22 00:31:11;;;;;;;2.28;0.30;;;28.40;88.00;;;;;;5078029;28;20066;-72
2021/10/22 00:33:38;;;;;;;0.95;0.63;;;28.90;89.20;;;;;;5074927;28;20136;-73
2021/10/22 00:36:11;;;;;;;0.50;0.20;;;29.30;86.80;;;;;;5077284;28;20054;-71
2021/10/22 00:38:38;;;;;;;2.05;0.75;;;29.30;80.20;;;;;;5081486;28;20119;-74
2021/10/22 00:41:06;;;;;;;1.27;0.28;;;29.30;78.50;;;;;;5078742;28;20016;-72
2021/10/22 00:43:33;;;;;;;0.73;0.30;;;29.30;77.00;;;;;;5089099;28;20020;-71
2021/10/22 00:46:01;;;;;;;1.10;0.30;;;29.10;78.00;;;;;;5083889;28;20036;-72
2021/10/22 00:48:30;;;;;;;1.13;0.25;;;28.70;76.50;;;;;;5077681;28;20085;-72
2021/10/22 00:51:01;;;;;;;0.80;0.40;;;28.20;80.70;;;;;;5080265;28;20028;-73
2021/10/22 00:53:29;;;;;;;0.50;0.10;;;27.80;81.00;;;;;;5078421;28;20471;-74
2021/10/22 00:55:56;;;;;;;0.85;0.30;;;27.40;78.80;;;;;;5080898;28;20073;-71
2021/10/22 00:58:24;;;;;;;1.63;0.60;;;27.10;82.50;;;;;;5076403;28;20055;-73
2021/10/22 01:00:52;;;;;;;1.38;0.15;;;27.40;86.80;;;;;;5076472;28;20089;-72
2021/10/22 01:03:19;;;;;;;1.40;0.50;;;28.10;83.50;;;;;;5077433;28;20382;-73
2021/10/22 01:05:47;;;;;;;0.68;0.30;;;28.30;82.60;;;;;;5078547;28;20131;-72
2021/10/22 01:08:15;;;;;;;0.68;0.20;;;28.60;78.80;;;;;;5079909;28;20067;-74
2021/10/22 01:10:43;;;;;;;2.63;0.60;;;28.60;79.20;;;;;;5081257;28;20020;-75
2021/10/22 01:13:10;;;;;;;1.23;0.52;;;28.50;76.60;;;;;;5089608;28;20040;-74
2021/10/22 01:15:38;;;;;;;2.45;0.25;;;27.90;76.80;;;;;;5085809;28;20081;-71
2021/10/22 01:18:05;;;;;;;1.00;0.30;;;27.40;77.80;;;;;;5081881;28;20078;-74
2021/10/22 01:20:36;;;;;;;0.20;0.20;;;26.80;78.00;;;;;;5083962;28;20433;-74
2021/10/22 01:23:04;;;;;;;0.95;0.40;;;26.80;79.20;;;;;;5082624;28;21150;-74
2021/10/22 01:25:32;;;;;;;1.05;0.38;;;27.50;79.60;;;;;;5080718;28;20731;-71
2021/10/22 01:28:01;;;;;;;3.72;0.50;;;27.30;79.60;;;;;;5080213;28;20037;-72
2021/10/22 01:30:31;;;;;;;0.32;0.25;;;27.00;77.30;;;;;;5082226;28;20482;-74
2021/10/22 01:33:06;;;;;;;2.30;0.32;;;26.60;80.50;;;;;;5083664;28;20091;-72
2021/10/22 01:35:34;;;;;;;2.95;0.77;;;26.30;81.50;;;;;;5082422;28;20494;-75
2021/10/22 01:38:05;;;;;;;0.85;0.30;;;26.20;80.80;;;;;;5081918;28;20548;-74
2021/10/22 01:40:32;;;;;;;0.90;0.40;;;26.30;81.60;;;;;;5082697;28;20024;-76
2021/10/22 01:43:00;;;;;;;1.17;0.60;;;27.20;80.00;;;;;;5083603;28;20120;-73
2021/10/22 01:45:28;;;;;;;0.55;0.30;;;27.90;78.70;;;;;;5084208;28;20562;-73
2021/10/22 01:47:56;;;;;;;2.00;0.30;;;28.40;74.70;;;;;;5083153;28;20107;-73
2021/10/22 01:50:23;;;;;;;0.63;0.30;;;28.80;75.80;;;;;;5083759;28;20027;-74
2021/10/22 01:52:51;;;;;;;2.03;0.35;;;29.30;71.90;;;;;;5080337;28;20439;-74
2021/10/22 01:55:18;;;;;;;1.27;0.40;;;28.90;73.20;;;;;;5078919;28;20806;-73
2021/10/22 01:57:45;;;;;;;2.15;0.35;;;28.70;75.50;;;;;;5083111;28;20438;-74
2021/10/22 02:00:13;;;;;;;1.25;0.20;;;28.90;76.20;;;;;;5083076;28;20032;-72
2021/10/22 02:02:41;;;;;;;1.60;0.30;;;29.00;74.10;;;;;;5087752;28;20479;-71
2021/10/22 02:05:08;;;;;;;1.23;0.30;;;29.40;80.70;;;;;;5064921;28;20070;-72
2021/10/22 02:07:36;;;;;;;1.02;0.60;;;30.00;73.20;;;;;;5077719;28;20032;-71
2021/10/22 02:10:04;;;;;;;0.95;0.32;;;30.50;74.50;;;;;;5084042;28;20032;-73
2021/10/22 02:12:32;;;;;;;2.65;0.38;;;30.40;69.40;;;;;;5081759;28;20467;-74
2021/10/22 02:14:59;;;;;;;1.80;0.30;;;30.10;70.40;;;;;;5079272;28;20031;-74
2021/10/22 02:17:26;;;;;;;1.27;0.50;;;29.40;71.80;;;;;;5080641;28;20381;-73
2021/10/22 02:19:54;;;;;;;1.42;0.60;;;29.00;72.70;;;;;;5082747;28;20243;-73
2021/10/22 02:22:21;;;;;;;2.53;0.70;;;29.10;77.60;;;;;;5082186;28;20024;-73
2021/10/22 02:24:49;;;;;;;3.45;0.50;;;29.60;73.80;;;;;;5080280;28;20489;-73
2021/10/22 02:27:16;;;;;;;0.82;0.30;;;29.80;69.70;;;;;;5081023;28;20036;-74
2021/10/22 02:29:43;;;;;;;0.98;0.50;;;29.60;71.20;;;;;;5084487;28;20134;-73
2021/10/22 02:32:11;;;;;;;2.70;0.60;;;29.30;70.50;;;;;;5079180;28;20028;-72
2021/10/22 02:34:38;;;;;;;0.93;0.30;;;29.20;69.10;;;;;;5079692;28;20032;-74
2021/10/22 02:37:06;;;;;;;0.90;0.30;;;29.10;70.10;;;;;;5076688;28;20024;-73
2021/10/22 02:39:35;;;;;;;2.83;0.52;;;29.30;69.10;;;;;;5082404;28;20393;-75
2021/10/22 02:42:03;;;;;;;2.42;0.65;;;29.70;69.10;;;;;;5085014;28;20081;-71
2021/10/22 02:44:30;;;;;;;2.00;0.52;;;29.50;65.00;;;;;;5073863;28;20028;-72
2021/10/22 02:46:59;;;;;;;0.80;0.20;;;29.40;67.20;;;;;;5079360;28;20028;-74
2021/10/22 02:49:27;;;;;;;1.75;0.47;;;29.80;69.70;;;;;;5081180;28;20024;-71
2021/10/22 02:51:56;;;;;;;0.88;0.30;;;29.80;67.20;;;;;;5083418;28;20491;-72
2021/10/22 02:54:23;;;;;;;0.47;0.32;;;29.50;66.50;;;;;;5085631;28;20029;-75
2021/10/22 02:56:51;;;;;;;3.50;0.93;;;29.70;73.10;;;;;;5079721;28;20070;-71
2021/10/22 02:59:19;;;;;;;3.05;0.57;;;29.80;65.80;;;;;;5080017;28;20379;-70
2021/10/22 03:01:46;;;;;;;3.17;0.70;;;29.70;65.70;;;;;;5090379;28;20481;-71
2021/10/22 03:04:14;;;;;;;3.63;1.52;;;29.30;70.00;;;;;;5085780;28;20036;-73
2021/10/22 03:06:41;;;;;;;1.40;0.70;;;28.40;66.80;;;;;;5080835;28;20078;-73
2021/10/22 03:09:09;;;;;;;2.38;1.30;;;27.80;68.40;;;;;;5077444;28;20162;-70
2021/10/22 03:11:36;;;;;;;1.60;1.00;;;28.20;67.90;;;;;;5082460;28;20024;-74
2021/10/22 03:14:04;;;;;;;2.70;1.00;;;28.70;67.50;;;;;;5091624;28;20498;-75
2021/10/22 03:16:32;;;;;;;1.05;0.90;;;29.00;67.50;;;;;;5085069;28;20043;-72
2021/10/22 03:18:59;;;;;;;3.45;1.40;;;29.30;67.20;;;;;;5083722;28;20031;-70
2021/10/22 03:21:27;;;;;;;2.50;0.90;;;29.80;68.10;;;;;;5081986;28;20385;-74
2021/10/22 03:23:56;;;;;;;1.15;0.90;;;30.10;63.50;;;;;;5077304;28;20112;-71
2021/10/22 03:26:24;;;;;;;1.95;1.23;;;29.80;65.10;;;;;;5080844;28;20119;-74
2021/10/22 03:28:52;;;;;;;1.05;0.73;;;29.60;65.30;;;;;;5080786;28;20502;-73
2021/10/22 03:31:20;;;;;;;1.65;1.08;;;29.20;65.70;;;;;;5082615;28;20040;-74
2021/10/22 03:33:47;;;;;;;3.95;1.40;;;29.40;66.40;;;;;;5076369;28;20044;-73
2021/10/22 03:36:14;;;;;;;2.80;1.05;;;29.60;64.80;;;;;;5090645;28;20023;-73
2021/10/22 03:38:42;;;;;;;3.33;1.45;;;29.40;64.50;;;;;;5087776;28;20293;-75
2021/10/22 03:41:09;;;;;;;1.80;0.88;;;29.70;66.30;;;;;;5091080;28;20047;-75
2021/10/22 03:43:39;;;;;;;1.92;1.25;;;30.20;64.80;;;;;;5078858;28;20086;-71
2021/10/22 03:46:06;;;;;;;1.60;0.80;;;30.70;65.90;;;;;;5049196;28;20507;-73
2021/10/22 03:48:34;;;;;;;1.58;0.93;;;31.10;65.90;;;;;;5068209;28;20040;-73
2021/10/22 03:51:01;;;;;;;2.03;0.90;;;31.20;64.00;;;;;;5081920;28;20024;-74
2021/10/22 03:53:30;;;;;;;2.75;0.70;;;31.50;64.60;;;;;;5080512;28;20115;-73
2021/10/22 03:55:57;;;;;;;1.33;0.70;;;31.50;61.60;;;;;;5081318;28;21248;-74
2021/10/22 03:58:25;;;;;;;1.48;0.77;;;31.70;62.60;;;;;;5080280;28;20032;-73
2021/10/22 04:00:52;;;;;;;2.70;0.70;;;31.80;62.20;;;;;;5089724;28;20027;-72
2021/10/22 04:03:20;;;;;;;2.75;0.98;;;31.70;60.90;;;;;;5092505;28;20020;-71
2021/10/22 04:05:47;;;;;;;0.93;0.63;;;31.30;63.30;;;;;;5086123;28;20039;-71
2021/10/22 04:08:16;;;;;;;1.45;0.60;;;31.20;64.00;;;;;;5087130;28;20051;-73
2021/10/22 04:10:43;;;;;;;1.52;0.60;;;31.10;63.70;;;;;;5090746;28;20046;-73
2021/10/22 04:13:12;;;;;;;4.47;0.73;;;30.60;65.00;;;;;;5091305;28;20043;-71
2021/10/22 04:15:41;;;;;;;2.60;0.57;;;29.70;69.10;;;;;;5087336;28;22310;-70
2021/10/22 04:18:09;;;;;;;4.72;1.23;;;28.80;71.20;;;;;;5090809;28;20028;-72
2021/10/22 04:20:37;;;;;;;1.67;0.50;;;28.20;72.80;;;;;;5090451;28;20123;-71
2021/10/22 04:23:05;;;;;;;3.28;0.70;;;28.00;72.50;;;;;;5091867;28;20020;-71
2021/10/22 04:25:34;;;;;;;2.95;0.73;;;28.00;72.60;;;;;;5074554;28;20028;-71
2021/10/22 04:28:03;;;;;;;1.95;0.50;;;28.30;73.20;;;;;;5076787;28;20039;-71
2021/10/22 04:30:31;;;;;;;1.00;0.43;;;28.60;71.70;;;;;;5077835;28;20047;-73
2021/10/22 04:32:59;;;;;;;1.77;0.77;;;28.50;71.10;;;;;;5080253;28;20411;-73
2021/10/22 04:35:38;;;;;;;3.47;0.90;;;28.30;72.30;;;;;;5073479;28;20062;-73
2021/10/22 04:40:56;;;;;;;0.55;0.40;;;27.40;74.80;;;;;;5006800;28;20091;-71
2021/10/22 04:43:24;;;;;;;3.45;0.70;;;27.50;75.90;;;;;;5073958;28;20036;-71
2021/10/22 04:45:54;;;;;;;2.72;0.82;;;27.70;75.00;;;;;;5056012;28;20024;-72
2021/10/22 04:48:21;;;;;;;2.28;0.80;;;27.70;75.50;;;;;;5078244;28;20032;-73
2021/10/22 04:50:51;;;;;;;3.60;0.70;;;27.70;75.90;;;;;;5080798;28;20463;-71
2021/10/22 04:53:23;;;;;;;3.42;1.20;;;27.80;76.30;;;;;;5079426;28;20119;-70
2021/10/22 04:55:50;;;;;;;4.40;0.70;;;27.70;76.70;;;;;;5082108;28;20070;-72
2021/10/22 04:58:17;;;;;;;2.63;0.68;;;27.80;77.00;;;;;;5081880;28;20035;-73
2021/10/22 05:00:45;;;;;;;1.75;0.95;;;28.00;76.60;;;;;;5082373;28;20016;-71
2021/10/22 05:03:12;;;;;;;1.02;0.52;;;28.10;76.00;;;;;;5086322;28;20107;-72
2021/10/22 05:05:39;;;;;;;10.10;0.90;;;28.10;77.20;;;;;;5081236;28;20024;-73
2021/10/22 05:08:07;;;;;;;1.70;0.52;;;28.00;76.40;;;;;;5079564;28;21001;-73
2021/10/22 05:10:34;;;;;;;3.50;0.90;;;28.00;76.00;;;;;;5081480;28;20031;-72
2021/10/22 05:13:05;;;;;;;2.97;0.85;;;27.80;76.30;;;;;;5080042;28;20036;-72
2021/10/22 05:15:33;;;;;;;0.80;0.55;;;27.50;78.30;;;;;;5076348;28;20024;-71
2021/10/22 05:18:00;;;;;;;3.33;0.57;;;27.50;78.40;;;;;;5081662;28;20930;-73
2021/10/22 05:20:28;;;;;;;4.35;1.15;;;27.50;78.60;;;;;;5079172;28;20389;-72
2021/10/22 05:22:55;;;;;;;0.93;0.65;;;27.50;78.80;;;;;;5079559;28;20043;-73
2021/10/22 05:25:22;;;;;;;7.03;1.63;;;27.70;78.70;;;;;;5077084;28;20028;-73
2021/10/22 05:27:50;;;;;;;3.40;0.50;;;27.70;78.70;;;;;;5078069;28;20031;-72
2021/10/22 05:30:17;;;;;;;1.98;0.43;;;27.60;78.50;;;;;;5080147;28;20044;-72
2021/10/22 05:32:45;;;;;;;2.00;0.50;;;27.50;79.00;;;;;;5077536;28;20102;-72
2021/10/22 05:35:13;;;;;;;3.90;0.80;;;27.40;79.60;;;;;;5080065;28;20498;-73
2021/10/22 05:37:40;;;;;;;3.08;0.75;;;27.50;80.00;;;;;;5076155;28;20035;-72
2021/10/22 05:40:08;;;;;;;1.77;0.50;;;27.20;80.40;;;;;;5078341;28;20048;-73
2021/10/22 05:42:37;;;;;;;2.58;0.65;;;27.20;81.10;;;;;;5078973;28;20020;-72
2021/10/22 05:45:05;;;;;;;1.40;0.47;;;27.10;80.80;;;;;;5084510;28;20077;-71
2021/10/22 05:47:33;;;;;;;2.65;0.50;;;27.20;81.30;;;;;;5078558;28;20403;-71
2021/10/22 05:50:00;;;;;;;3.00;0.60;;;27.10;81.70;;;;;;5074495;28;20024;-71
2021/10/22 05:52:28;;;;;;;2.58;0.57;;;27.00;82.90;;;;;;5087338;28;20474;-72
2021/10/22 05:54:56;;;;;;;3.78;0.88;;;26.80;82.50;;;;;;5088084;28;20081;-72
2021/10/22 05:57:24;;;;;;;4.90;1.02;;;26.70;83.00;;;;;;5085457;28;20021;-71
2021/10/22 05:59:51;;;;;;;1.83;0.60;;;26.50;83.60;;;;;;5084548;28;20027;-71
2021/10/22 06:02:18;;;;;;;1.20;0.40;;;26.30;84.70;;;;;;5078426;28;20090;-73
2021/10/22 06:04:46;;;;;;;2.08;0.60;;;26.20;84.70;;;;;;5093889;28;20111;-72
2021/10/22 06:07:13;;;;;;;1.42;0.45;;;26.20;85.10;;;;;;5092547;28;20094;-73
2021/10/22 06:09:41;;;;;;;1.30;0.80;;;26.10;85.20;;;;;;5094838;28;20056;-71
2021/10/22 06:12:09;;;;;;;3.08;0.50;;;26.10;85.40;;;;;;5085976;28;20483;-70
2021/10/22 06:14:38;;;;;;;2.00;0.40;;;26.00;85.10;;;;;;5091272;28;20028;-72
2021/10/22 06:17:06;;;;;;;2.35;0.40;;;25.90;85.50;;;;;;5083694;28;20489;-72
2021/10/22 06:19:38;;;;;;;2.80;0.57;;;25.70;86.30;;;;;;5084151;28;20076;-72
2021/10/22 06:24:38;;;;;;;2.63;0.60;;;25.60;87.30;;;;;;5085581;28;20024;-71
2021/10/22 06:27:06;;;;;;;1.80;0.73;;;25.60;87.00;;;;;;5082361;28;20055;-72
2021/10/22 06:29:34;;;;;;;2.35;0.55;;;25.40;87.50;;;;;;5087443;28;20591;-73
2021/10/22 06:32:02;;;;;;;6.93;1.38;;;25.30;88.40;;;;;;5080438;28;20055;-71
2021/10/22 06:34:30;;;;;;;1.70;0.90;;;25.20;88.70;;;;;;5084467;28;20039;-72
2021/10/22 06:36:58;;;;;;;3.33;0.50;;;25.30;88.90;;;;;;5085823;28;20480;-70
2021/10/22 06:39:26;;;;;;;3.97;0.63;;;25.20;89.30;;;;;;5080671;28;20174;-70
2021/10/22 06:41:53;;;;;;;3.17;0.40;;;25.30;89.50;;;;;;5081916;28;20028;-71
2021/10/22 06:44:25;;;;;;;1.42;0.45;;;25.20;89.80;;;;;;5081155;28;20021;-72
2021/10/22 06:46:52;;;;;;;4.05;0.47;;;25.10;90.00;;;;;;5057933;28;20066;-70
2021/10/22 06:49:20;;;;;;;1.67;0.47;;;25.00;90.20;;;;;;5078433;28;20020;-70
2021/10/22 06:51:47;;;;;;;1.42;0.50;;;24.90;90.50;;;;;;5079162;28;20024;-71
2021/10/22 06:54:15;;;;;;;4.15;0.60;;;24.80;90.70;;;;;;5061068;28;20081;-70
2021/10/22 06:56:43;;;;;;;4.55;1.13;;;24.70;91.00;;;;;;5075710;28;20028;-71
2021/10/22 06:59:10;;;;;;;2.03;0.65;;;24.50;91.30;;;;;;5063467;28;20062;-71
2021/10/22 07:01:38;;;;;;;2.10;0.73;;;24.50;91.50;;;;;;5078320;28;20028;-73
2021/10/22 07:04:10;;;;;;;5.18;1.33;;;24.50;91.70;;;;;;5078702;28;20064;-71
2021/10/22 07:09:24;;;;;;;4.07;0.52;;;24.30;92.10;;;;;;5073819;28;20043;-72
2021/10/22 07:11:51;;;;;;;1.67;0.68;;;24.30;92.10;;;;;;5083147;28;20039;-72
2021/10/22 07:14:19;;;;;;;5.32;0.70;;;24.40;92.30;;;;;;5081865;28;20024;-71
2021/10/22 07:16:46;;;;;;;2.38;0.50;;;24.10;92.50;;;;;;5078040;28;20027;-70
2021/10/22 07:19:14;;;;;;;3.15;0.50;;;24.10;92.70;;;;;;5080288;28;20040;-72
2021/10/22 07:21:49;;;;;;;1.75;0.45;;;24.00;92.90;;;;;;5078733;28;20024;-71
2021/10/22 07:24:20;;;;;;;3.72;0.43;;;23.80;93.20;;;;;;5085096;28;20181;-73
2021/10/22 07:26:48;;;;;;;4.90;0.80;;;23.70;93.70;;;;;;5085992;28;20077;-71
2021/10/22 07:29:16;;;;;;;2.10;0.40;;;23.60;94.00;;;;;;5085741;28;20036;-72
2021/10/22 07:31:43;;;;;;;2.65;0.80;;;23.50;94.10;;;;;;5074905;28;20029;-72
2021/10/22 07:34:14;;;;;;;1.42;0.40;;;23.40;94.40;;;;;;5084390;28;20157;-73
2021/10/22 07:36:41;;;;;;;2.80;0.70;;;23.30;94.60;;;;;;5078747;28;20121;-71
2021/10/22 07:39:09;;;;;;;4.95;0.80;;;23.20;94.80;;;;;;5083133;28;20020;-70
2021/10/22 07:41:36;;;;;;;2.30;0.68;;;23.10;95.10;;;;;;5077188;28;20498;-70
2021/10/22 07:44:04;;;;;;;2.97;0.50;;;23.00;95.40;;;;;;5077815;28;20063;-72
2021/10/22 07:46:31;;;;;;;8.65;1.10;;;23.00;95.70;;;;;;5075595;28;20016;-72
2021/10/22 07:48:59;;;;;;;3.72;1.90;;;22.90;96.00;;;;;;5076027;28;20039;-71
2021/10/22 07:51:26;;;;;;;2.30;0.50;;;22.90;96.20;;;;;;5086385;28;20483;-70
2021/10/22 07:53:53;;;;;;;4.53;0.50;;;22.80;96.30;;;;;;5077407;28;20047;-70
2021/10/22 07:56:21;;;;;;;5.18;0.82;;;22.80;96.40;;;;;;5082360;28;20069;-71
2021/10/22 07:58:50;;;;;;;8.40;0.80;;;22.80;96.60;;;;;;5073392;28;20024;-72
2021/10/22 08:01:20;;;;;;;7.22;0.82;;;22.70;96.90;;;;;;5081078;28;20035;-72
2021/10/22 08:03:49;;;;;;;2.75;0.52;;;22.60;97.00;;;;;;5094559;28;20487;-72
2021/10/22 08:06:17;;;;;;;2.80;0.70;;;22.50;97.00;;;;;;5083000;28;20035;-73
2021/10/22 08:08:46;;;;;;;2.03;0.50;;;22.50;97.10;;;;;;5080125;28;20016;-72
2021/10/22 08:11:20;;;;;;;3.08;0.65;;;22.40;97.40;;;;;;5076714;28;20032;-72
2021/10/22 08:13:48;;;;;;;1.25;0.50;;;22.30;97.20;;;;;;5090280;28;20462;-72
2021/10/22 08:16:16;;;;;;;1.88;0.43;;;22.20;97.50;;;;;;5091036;28;20482;-71
2021/10/22 08:18:43;;;;;;;4.30;0.80;;;22.20;97.90;;;;;;5090640;28;20035;-71
2021/10/22 08:23:45;;;;;;;4.32;0.75;;;22.00;98.40;;;;;;5080684;28;20077;-72
2021/10/22 08:26:23;;;;;;;2.58;0.60;;;22.00;98.50;;;;;;5086127;28;20382;-72
2021/10/22 08:28:50;;;;;;;1.50;0.30;;;21.90;98.80;;;;;;5084245;28;20480;-72
2021/10/22 08:31:18;;;;;;;2.75;0.70;;;21.90;98.90;;;;;;5084670;28;20056;-74
2021/10/22 08:33:45;;;;;;;2.25;0.40;;;21.80;99.10;;;;;;5068407;28;20055;-76
2021/10/22 08:36:13;;;;;;;3.90;0.88;;;21.70;99.60;;;;;;5083382;28;20104;-75
2021/10/22 08:38:41;;;;;;;1.75;0.75;;;21.50;99.90;;;;;;5076858;28;20036;-75
2021/10/22 08:41:12;;;;;;;2.65;1.02;;;21.40;99.90;;;;;;5074953;28;20016;-74
2021/10/22 08:43:40;;;;;;;7.15;0.98;;;21.40;99.90;;;;;;5076894;28;20053;-74
2021/10/22 08:46:17;;;;;;;1.30;0.35;;;21.30;99.90;;;;;;5079109;28;20044;-75
2021/10/22 08:48:44;;;;;;;4.50;0.68;;;21.20;99.90;;;;;;5084152;28;20510;-76
2021/10/22 08:51:18;;;;;;;4.65;1.35;;;21.10;99.90;;;;;;5079983;28;20032;-74
2021/10/22 08:53:48;;;;;;;5.28;0.57;;;21.00;99.90;;;;;;5064873;28;20038;-77
2021/10/22 08:56:19;;;;;;;4.80;0.75;;;21.00;99.90;;;;;;5083399;28;20127;-78
2021/10/22 08:58:47;;;;;;;3.00;0.85;;;21.00;99.90;;;;;;5067617;28;20098;-74
2021/10/22 09:01:15;;;;;;;2.42;0.60;;;20.90;99.90;;;;;;5073955;28;20050;-74
2021/10/22 09:03:42;;;;;;;4.65;0.95;;;20.80;99.90;;;;;;5080958;28;20016;-74
2021/10/22 09:06:14;;;;;;;3.60;1.05;;;20.70;99.90;;;;;;5076882;28;20145;-74
2021/10/22 09:08:44;;;;;;;2.50;0.63;;;20.60;99.90;;;;;;5080104;28;20081;-76
2021/10/22 09:11:25;;;;;;;0.50;0.30;;;20.50;99.90;;;;;;5066920;28;20035;-73
2021/10/22 09:14:15;;;;;;;7.70;1.50;;;20.40;99.90;;;;;;5074605;28;20495;-74
2021/10/22 09:16:48;;;;;;;3.08;0.90;;;20.40;99.90;;;;;;5077034;28;20543;-75
2021/10/22 09:19:36;;;;;;;4.72;2.17;;;20.20;99.90;;;;;;5077970;28;20055;-74
2021/10/22 09:22:33;;;;;;;4.80;1.50;;;20.10;99.90;;;;;;5075311;28;20111;-76
2021/10/22 09:25:11;;;;;;;3.35;1.15;;;20.10;99.90;;;;;;5078474;28;20031;-74
2021/10/22 09:27:58;;;;;;;7.78;2.60;;;20.00;99.90;;;;;;5074895;28;20100;-73
2021/10/22 09:30:29;;;;;;;6.18;1.60;;;20.00;99.90;;;;;;5081221;28;20049;-76
2021/10/22 09:33:04;;;;;;;3.08;0.90;;;19.90;99.90;;;;;;5077868;28;20406;-74
2021/10/22 09:35:55;;;;;;;5.03;1.38;;;19.90;99.90;;;;;;5079793;28;20051;-75
2021/10/22 09:38:23;;;;;;;2.38;0.70;;;19.90;99.90;;;;;;5063244;28;20081;-73
2021/10/22 09:40:54;;;;;;;2.50;0.82;;;19.80;99.90;;;;;;5064369;28;20025;-74
2021/10/22 09:43:24;;;;;;;4.60;0.90;;;19.80;99.90;;;;;;5079215;28;20478;-74
2021/10/22 09:46:08;;;;;;;4.32;0.98;;;19.70;99.90;;;;;;5087274;28;20092;-74
2021/10/22 09:48:36;;;;;;;5.15;0.82;;;19.70;99.90;;;;;;5088553;28;20522;-72
2021/10/22 09:51:29;;;;;;;1.38;0.65;;;19.70;99.90;;;;;;5078104;28;20102;-73
2021/10/22 09:54:06;;;;;;;4.13;0.73;;;19.70;99.90;;;;;;5081032;28;20032;-73
2021/10/22 09:56:35;;;;;;;6.90;2.53;;;19.70;99.90;;;;;;5081136;28;20027;-74
2021/10/22 09:59:11;;;;;;;3.22;1.30;;;19.60;99.90;;;;;;5090698;28;20074;-73
2021/10/22 10:01:43;;;;;;;5.43;1.17;;;19.60;99.90;;;;;;5086755;28;20035;-73
2021/10/22 10:04:13;;;;;;;3.17;0.57;;;19.60;99.90;;;;;;5085843;28;20028;-73
2021/10/22 10:06:43;;;;;;;1.52;0.63;;;19.50;99.90;;;;;;5087109;28;20059;-73
2021/10/22 10:09:13;;;;;;;2.00;0.57;;;19.50;99.90;;;;;;5089328;28;20028;-75
2021/10/22 10:11:42;;;;;;;5.43;1.20;;;19.50;99.90;;;;;;5090426;28;20031;-72
2021/10/22 10:14:12;;;;;;;10.07;1.83;;;19.50;99.90;;;;;;5075498;28;20031;-73
2021/10/22 10:16:40;;;;;;;6.22;1.55;;;19.40;99.90;;;;;;5081184;28;20035;-73
2021/10/22 10:19:24;;;;;;;3.53;0.93;;;19.40;99.90;;;;;;5082026;28;20028;-74
2021/10/22 10:22:09;;;;;;;6.82;1.10;;;19.40;99.90;;;;;;5069840;28;20016;-73
2021/10/22 10:24:41;;;;;;;6.07;3.00;;;19.40;99.90;;;;;;5077293;28;20039;-73
2021/10/22 10:27:15;;;;;;;3.65;1.10;;;19.40;99.90;;;;;;5083981;28;20103;-73
2021/10/22 10:29:49;;;;;;;3.40;0.70;;;19.40;99.90;;;;;;5090988;28;20044;-74
2021/10/22 10:32:19;;;;;;;4.82;1.05;;;19.30;99.90;;;;;;5081128;28;20040;-73
2021/10/22 10:34:52;;;;;;;5.35;1.27;;;19.20;99.90;;;;;;5079705;28;20525;-74
2021/10/22 10:37:25;;;;;;;1.85;0.85;;;19.20;99.90;;;;;;5081137;28;20464;-75
2021/10/22 10:40:08;;;;;;;1.25;0.47;;;19.10;99.90;;;;;;5079502;28;20012;-76
2021/10/22 10:42:53;;;;;;;2.75;0.77;;;19.10;99.90;;;;;;5080727;28;20574;-76
2021/10/22 10:45:26;;;;;;;6.07;0.85;;;19.10;99.90;;;;;;5076906;28;20028;-78
2021/10/22 10:48:20;;;;;;;7.32;0.93;;;19.00;99.90;;;;;;5080441;28;20028;-76
2021/10/22 10:51:04;;;;;;;4.47;0.65;;;19.00;99.90;;;;;;5084181;28;20043;-76
2021/10/22 10:53:36;;;;;;;1.27;0.63;;;19.00;99.90;;;;;;5085253;28;20044;-73
2021/10/22 10:56:32;;;;;;;4.43;2.58;;;19.00;99.90;;;;;;5083088;28;20028;-75
2021/10/22 10:58:59;;;;;;;4.90;0.83;;;19.00;99.90;;;;;;5083200;28;20035;-75
2021/10/22 11:01:34;;;;;;;6.20;1.08;;;19.00;99.90;;;;;;5084425;28;20292;-74
2021/10/22 11:04:04;;;;;;;3.53;1.58;;;19.00;99.90;;;;;;5082378;28;20107;-75
2021/10/22 11:06:44;;;;;;;7.65;2.08;;;19.00;99.90;;;;;;5077458;28;20025;-77
2021/10/22 11:09:15;;;;;;;2.65;1.15;;;19.00;99.90;;;;;;5064383;28;20744;-75
2021/10/22 11:11:57;;;;;;;2.80;1.20;;;19.00;99.90;;;;;;5078483;28;20039;-74
2021/10/22 11:14:24;;;;;;;5.32;1.30;;;18.90;99.90;;;;;;5081952;28;20012;-73
2021/10/22 11:16:54;;;;;;;5.93;1.77;;;18.90;99.90;;;;;;5078423;28;20107;-74
2021/10/22 11:19:32;;;;;;;3.50;0.63;;;18.80;99.90;;;;;;5079326;28;20016;-74
2021/10/22 11:22:23;;;;;;;9.95;1.92;;;18.70;99.90;;;;;;5078728;28;20412;-74
2021/10/22 11:24:51;;;;;;;2.63;1.00;;;18.70;99.90;;;;;;5077763;28;20259;-75
2021/10/22 11:27:28;;;;;;;7.45;1.00;;;18.60;99.90;;;;;;5075156;28;20025;-74
2021/10/22 11:29:57;;;;;;;2.47;0.93;;;18.50;99.90;;;;;;5079362;28;20578;-75
2021/10/22 11:32:29;;;;;;;2.67;1.02;;;18.50;99.90;;;;;;5079292;28;20031;-73
2021/10/22 11:35:02;;;;;;;10.73;1.70;;;18.50;99.90;;;;;;5080858;28;20020;-74
2021/10/22 11:37:40;;;;;;;3.97;1.00;;;18.40;99.90;;;;;;5077742;28;20019;-74
2021/10/22 11:40:14;;;;;;;6.97;2.10;;;18.40;99.90;;;;;;5069986;28;20049;-73
2021/10/22 11:42:41;;;;;;;2.40;0.70;;;18.40;99.90;;;;;;5083090;28;20032;-74
2021/10/22 11:45:16;;;;;;;3.78;0.85;;;18.40;99.90;;;;;;5083096;28;20028;-74
2021/10/22 11:47:46;;;;;;;11.63;1.88;;;18.30;99.90;;;;;;5079948;28;20057;-73
2021/10/22 11:50:21;;;;;;;5.35;1.13;;;18.30;99.90;;;;;;5082464;28;20136;-74
2021/10/22 11:52:55;;;;;;;3.60;1.55;;;18.30;99.90;;;;;;5082829;28;20040;-74
2021/10/22 11:55:27;;;;;;;4.70;1.23;;;18.30;99.90;;;;;;5080733;28;20024;-72
2021/10/22 11:57:56;;;;;;;3.78;1.27;;;18.20;99.90;;;;;;5081926;28;20490;-72
2021/10/22 12:00:24;;;;;;;3.17;1.10;;;18.10;99.90;;;;;;5078958;28;20051;-71
2021/10/22 12:02:52;;;;;;;1.65;1.33;;;18.10;99.90;;;;;;5081703;28;20036;-72
2021/10/22 12:05:20;;;;;;;10.07;1.45;;;18.10;99.90;;;;;;5081517;28;20032;-73
2021/10/22 12:07:54;;;;;;;5.55;1.05;;;18.10;99.90;;;;;;5084943;28;20059;-73
2021/10/22 12:10:22;;;;;;;3.90;0.65;;;18.00;99.90;;;;;;5083047;28;22131;-74
2021/10/22 12:12:51;;;;;;;3.35;0.98;;;18.00;99.90;;;;;;5079078;28;20067;-73
2021/10/22 12:15:25;;;;;;;3.53;0.80;;;18.00;99.90;;;;;;5076568;28;20031;-72
2021/10/22 12:17:59;;;;;;;1.88;1.10;;;18.00;99.90;;;;;;5073590;28;20028;-74
2021/10/22 12:20:27;;;;;;;9.75;2.60;;;18.00;99.90;;;;;;5078529;28;20657;-74
2021/10/22 12:23:00;;;;;;;5.30;1.10;;;17.90;99.90;;;;;;5075248;28;20020;-72
2021/10/22 12:25:32;;;;;;;4.13;1.65;;;17.90;99.90;;;;;;5079276;28;20029;-73
2021/10/22 12:28:01;;;;;;;4.55;1.35;;;17.80;99.90;;;;;;5062616;28;20029;-72
2021/10/22 12:30:34;;;;;;;2.92;0.93;;;17.70;99.90;;;;;;5078886;28;20041;-72
2021/10/22 12:33:04;;;;;;;5.43;1.08;;;17.70;99.90;;;;;;5085636;28;20119;-72
2021/10/22 12:35:39;;;;;;;5.60;1.10;;;17.70;99.90;;;;;;5089815;28;20039;-72
2021/10/22 12:38:10;;;;;;;3.93;1.07;;;17.70;99.90;;;;;;5081296;28;20099;-73
2021/10/22 12:40:48;;;;;;;2.65;1.27;;;17.70;99.90;;;;;;5083636;28;20036;-74
2021/10/22 12:43:22;;;;;;;5.18;1.73;;;17.70;99.90;;;;;;5090860;28;20032;-75
2021/10/22 12:45:52;;;;;;;2.85;0.95;;;17.70;99.90;;;;;;5070218;28;20069;-72
2021/10/22 12:48:25;;;;;;;4.80;1.13;;;17.70;99.90;;;;;;5064076;28;20036;-72
2021/10/22 12:50:53;;;;;;;2.85;0.85;;;17.70;99.90;;;;;;5053982;28;20085;-72
2021/10/22 12:53:37;;;;;;;4.78;1.25;;;17.70;99.90;;;;;;5069710;28;20570;-71
2021/10/22 12:56:14;;;;;;;5.57;1.90;;;17.70;99.90;;;;;;5074560;28;20514;-73
2021/10/22 12:58:59;;;;;;;1.45;0.95;;;17.60;99.90;;;;;;5079236;28;20027;-72
2021/10/22 13:01:36;;;;;;;4.68;1.10;;;17.60;99.90;;;;;;5069917;28;20095;-73
2021/10/22 13:04:07;;;;;;;3.67;1.15;;;17.60;99.90;;;;;;5088914;28;20024;-73
2021/10/22 13:20:35;;;;;;;7.05;1.40;;;17.40;99.90;;;;;;5067618;28;20436;-72
2021/10/22 13:23:07;;;;;;;3.58;0.90;;;17.40;99.90;;;;;;5079917;28;20044;-72
2021/10/22 13:25:35;;;;;;;2.90;0.93;;;17.30;99.90;;;;;;5058788;28;22532;-72